Time;durP1;ratioP1;P1;durP2;ratioP2;P2;SDS_P1;SDS_P2;PMS_P1;PMS_P2;Temp;Humidity;BMP_temperature;BMP_pressure;BME280_temperature;BME280_humidity;BME280_pressure;Samples;Min_cycle;Max_cycle;Signal;HPM_P1;HPM_P2
2023/10/17 00:02:10;;;;;;;;;;;;;;;10.88;48.84;101266.44;4985043;27;99182;-64
2023/10/17 00:04:38;;;;;;;;;;;;;;;10.93;48.51;101263.84;4999633;27;98540;-64
2023/10/17 00:07:05;;;;;;;;;;;;;;;10.97;48.52;101264.97;4967694;27;98162;-64
2023/10/17 00:09:36;;;;;;;;;;;;;;;11.00;48.54;101261.78;5016729;27;98005;-64
2023/10/17 00:12:45;;;;;;;;;;;;;;;11.03;48.58;101258.56;5002319;27;98799;-69
2023/10/17 00:17:22;;;;;;;;;;;;;;;11.07;48.92;101250.78;4943292;27;98349;-64
2023/10/17 00:19:51;;;;;;;;;;;;;;;11.08;49.07;101252.41;4966241;27;98286;-68
2023/10/17 00:22:23;;;;;;;;;;;;;;;11.10;48.72;101261.06;4967176;28;98308;-64
2023/10/17 00:24:57;;;;;;;;;;;;;;;11.10;48.58;101254.88;4947665;27;98298;-68
2023/10/17 00:27:23;;;;;;;;;;;;;;;11.11;48.77;101245.69;4929776;28;98292;-64
2023/10/17 00:29:49;;;;;;;;;;;;;;;11.10;48.54;101255.69;4945167;27;98262;-68
2023/10/17 00:32:16;;;;;;;;;;;;;;;11.11;48.59;101257.31;4965192;28;98143;-69
2023/10/17 00:34:46;;;;;;;;;;;;;;;11.11;48.66;101251.09;4964599;27;98092;-64
2023/10/17 00:37:19;;;;;;;;;;;;;;;11.10;48.76;101254.88;4951840;28;98059;-64
2023/10/17 00:39:47;;;;;;;;;;;;;;;11.09;48.62;101248.66;4950907;27;101433;-68
2023/10/17 00:42:28;;;;;;;;;;;;;;;11.09;48.78;101253.25;4966220;28;98201;-68
2023/10/17 00:44:55;;;;;;;;;;;;;;;11.07;49.05;101248.91;4962897;27;99895;-64
2023/10/17 00:47:22;;;;;;;;;;;;;;;11.07;48.77;101251.59;4939232;27;98286;-64
2023/10/17 00:49:50;;;;;;;;;;;;;;;11.06;48.54;101244.56;4947123;27;98350;-68
2023/10/17 00:52:32;;;;;;;;;;;;;;;11.06;48.77;101247.28;4968439;28;98140;-64
2023/10/17 00:54:59;;;;;;;;;;;;;;;11.06;48.87;101243.75;4980153;27;99762;-64
2023/10/17 00:57:28;;;;;;;;;;;;;;;11.04;48.71;101243.19;4964817;28;99150;-68
2023/10/17 01:00:08;;;;;;;;;;;;;;;11.03;48.61;101233.47;4959640;27;99395;-68
2023/10/17 01:02:44;;;;;;;;;;;;;;;11.02;49.21;101235.34;4965565;27;98279;-64
2023/10/17 01:05:12;;;;;;;;;;;;;;;11.01;48.76;101239.13;4943812;27;102037;-64
2023/10/17 01:07:40;;;;;;;;;;;;;;;11.00;48.92;101237.50;4946910;28;99544;-68
2023/10/17 01:10:28;;;;;;;;;;;;;;;10.99;48.77;101240.44;4953874;27;97895;-64
2023/10/17 01:12:56;;;;;;;;;;;;;;;10.98;49.00;101245.00;4961168;27;99334;-68
2023/10/17 01:15:28;;;;;;;;;;;;;;;10.97;48.84;101240.69;4999521;27;98352;-69
2023/10/17 01:18:03;;;;;;;;;;;;;;;10.96;49.26;101236.34;4995554;27;98170;-68
2023/10/17 01:20:31;;;;;;;;;;;;;;;10.96;48.51;101243.63;5001089;27;98049;-64
2023/10/17 01:23:00;;;;;;;;;;;;;;;10.94;49.18;101233.09;4998228;27;98132;-64
2023/10/17 01:25:29;;;;;;;;;;;;;;;10.93;48.83;101236.06;4983247;27;98704;-64
2023/10/17 01:27:57;;;;;;;;;;;;;;;10.92;49.15;101235.22;4986345;27;98184;-64
2023/10/17 01:30:23;;;;;;;;;;;;;;;10.90;48.76;101234.66;4995998;27;101169;-68
2023/10/17 01:32:51;;;;;;;;;;;;;;;10.90;48.84;101231.97;4981949;27;98533;-64
2023/10/17 01:35:21;;;;;;;;;;;;;;;10.88;48.98;101242.19;5000688;27;99399;-64
2023/10/17 01:37:47;;;;;;;;;;;;;;;10.88;49.07;101238.66;4986461;27;98399;-64
2023/10/17 01:40:28;;;;;;;;;;;;;;;10.87;48.85;101232.47;5013166;27;98914;-64
2023/10/17 01:42:59;;;;;;;;;;;;;;;10.86;48.98;101233.53;4997324;27;98129;-64
2023/10/17 01:45:26;;;;;;;;;;;;;;;10.85;48.95;101225.72;4979210;27;99388;-70
2023/10/17 01:47:54;;;;;;;;;;;;;;;10.85;48.59;101233.81;5007553;27;97993;-64
2023/10/17 01:50:21;;;;;;;;;;;;;;;10.83;48.86;101225.94;5003394;27;99928;-64
2023/10/17 01:52:47;;;;;;;;;;;;;;;10.84;49.19;101226.75;5000826;27;99998;-68
2023/10/17 01:55:15;;;;;;;;;;;;;;;10.81;48.90;101228.91;4999938;27;98557;-64
2023/10/17 01:57:44;;;;;;;;;;;;;;;10.81;49.01;101230.78;4987834;27;100260;-69
2023/10/17 02:02:55;;;;;;;;;;;;;;;10.78;48.88;101232.09;4988471;27;98081;-64
2023/10/17 02:05:22;;;;;;;;;;;;;;;10.78;48.71;101239.38;4972061;27;98210;-69
2023/10/17 02:07:49;;;;;;;;;;;;;;;10.76;49.06;101234.22;4980732;27;98072;-64
2023/10/17 02:10:21;;;;;;;;;;;;;;;10.76;48.97;101236.09;4998325;27;98147;-68
2023/10/17 02:12:48;;;;;;;;;;;;;;;10.75;49.34;101237.16;4970616;27;98113;-69
2023/10/17 02:15:23;;;;;;;;;;;;;;;10.74;49.36;101235.53;5003845;27;99790;-68
2023/10/17 02:17:51;;;;;;;;;;;;;;;10.72;49.00;101230.38;5018908;27;99908;-68
2023/10/17 02:20:30;;;;;;;;;;;;;;;10.72;48.93;101229.56;5019227;27;98230;-68
2023/10/17 02:22:59;;;;;;;;;;;;;;;10.71;48.76;101239.53;4983311;27;98551;-64
2023/10/17 02:25:32;;;;;;;;;;;;;;;10.70;49.11;101235.22;5002616;27;98701;-68
2023/10/17 02:28:02;;;;;;;;;;;;;;;10.68;49.03;101234.63;4985643;27;98270;-64
2023/10/17 02:30:29;;;;;;;;;;;;;;;10.68;49.10;101233.81;4979465;27;98093;-64
2023/10/17 02:32:56;;;;;;;;;;;;;;;10.66;49.05;101223.31;5011544;27;98172;-70
2023/10/17 02:35:36;;;;;;;;;;;;;;;10.66;48.85;101234.09;4967218;27;98011;-64
2023/10/17 02:38:04;;;;;;;;;;;;;;;10.66;48.73;101238.66;5001471;27;100102;-68
2023/10/17 02:40:38;;;;;;;;;;;;;;;10.65;48.85;101237.84;4998636;27;98614;-64
2023/10/17 02:43:04;;;;;;;;;;;;;;;10.64;48.90;101238.09;5003203;27;98540;-64
2023/10/17 02:45:31;;;;;;;;;;;;;;;10.64;48.92;101240.78;5011609;27;99141;-64
2023/10/17 02:48:11;;;;;;;;;;;;;;;10.62;49.05;101241.03;4997562;27;100674;-68
2023/10/17 02:53:06;;;;;;;;;;;;;;;10.60;48.91;101245.84;5002054;27;98445;-64
2023/10/17 02:55:33;;;;;;;;;;;;;;;10.60;48.74;101245.84;5002518;27;98378;-68
2023/10/17 02:58:01;;;;;;;;;;;;;;;10.60;48.76;101245.03;4996271;27;98021;-64
2023/10/17 03:00:33;;;;;;;;;;;;;;;10.59;49.06;101241.53;4985626;27;98149;-68
2023/10/17 03:03:11;;;;;;;;;;;;;;;10.58;48.92;101242.59;5000605;27;98288;-64
2023/10/17 03:05:43;;;;;;;;;;;;;;;10.58;49.36;101245.31;4977087;27;98983;-68
2023/10/17 03:08:15;;;;;;;;;;;;;;;10.56;49.48;101242.84;5004579;27;98214;-64
2023/10/17 03:10:44;;;;;;;;;;;;;;;10.57;49.19;101244.50;4984583;27;98201;-64
2023/10/17 03:13:56;;;;;;;;;;;;;;;10.56;49.14;101247.41;4981840;27;99164;-68
2023/10/17 03:16:15;;;;;;;;;;;;;;;10.55;48.94;101241.22;4978489;27;98431;-64
2023/10/17 03:18:45;;;;;;;;;;;;;;;10.56;48.95;101242.03;5011005;27;98469;-68
2023/10/17 03:21:12;;;;;;;;;;;;;;;10.55;48.94;101237.69;4983145;27;98016;-68
2023/10/17 03:23:46;;;;;;;;;;;;;;;10.55;48.82;101235.00;5000170;27;98568;-64
2023/10/17 03:26:12;;;;;;;;;;;;;;;10.54;49.22;101230.69;4995015;27;100776;-68
2023/10/17 03:28:40;;;;;;;;;;;;;;;10.54;48.65;101233.38;4999375;27;98664;-64
2023/10/17 03:31:10;;;;;;;;;;;;;;;10.52;49.05;101233.63;5000056;27;98032;-64
2023/10/17 03:33:40;;;;;;;;;;;;;;;10.52;49.37;101236.31;4971392;27;98278;-64
2023/10/17 03:36:34;;;;;;;;;;;;;;;10.51;49.30;101242.78;5001218;27;98182;-68
2023/10/17 03:38:53;;;;;;;;;;;;;;;10.49;48.75;101234.13;5002072;27;101662;-68
2023/10/17 03:41:24;;;;;;;;;;;;;;;10.48;49.37;101232.47;4999880;27;98086;-68
2023/10/17 03:43:54;;;;;;;;;;;;;;;10.48;49.01;101234.38;4979801;27;98093;-68
2023/10/17 03:46:25;;;;;;;;;;;;;;;10.46;48.77;101231.94;4998958;27;99778;-68
2023/10/17 03:49:00;;;;;;;;;;;;;;;10.44;48.83;101233.22;4986869;27;98243;-68
2023/10/17 03:51:27;;;;;;;;;;;;;;;10.44;49.34;101233.22;4987150;27;98382;-64
2023/10/17 03:54:06;;;;;;;;;;;;;;;10.43;48.99;101228.91;4995719;27;99473;-64
2023/10/17 03:56:45;;;;;;;;;;;;;;;10.43;48.62;101231.59;4980400;27;98719;-64
2023/10/17 04:02:20;;;;;;;;;;;;;;;10.40;49.53;101227.50;4974885;27;98286;-68
2023/10/17 04:04:55;;;;;;;;;;;;;;;10.38;48.82;101236.94;4965955;27;98077;-64
2023/10/17 04:07:27;;;;;;;;;;;;;;;10.38;49.44;101232.34;4962742;27;98150;-63
2023/10/17 04:10:19;;;;;;;;;;;;;;;10.38;49.50;101229.66;4998434;27;99867;-68
2023/10/17 04:12:49;;;;;;;;;;;;;;;10.38;48.74;101226.16;4989194;27;98457;-68
2023/10/17 04:15:18;;;;;;;;;;;;;;;10.37;49.46;101224.50;4978113;27;101369;-64
2023/10/17 04:17:48;;;;;;;;;;;;;;;10.37;49.16;101219.91;4979421;27;98574;-64
2023/10/17 04:20:16;;;;;;;;;;;;;;;10.36;49.38;101221.00;4995442;27;99958;-68
2023/10/17 04:22:45;;;;;;;;;;;;;;;10.36;49.07;101223.69;4966290;27;99793;-68
2023/10/17 04:25:33;;;;;;;;;;;;;;;10.35;49.10;101224.75;4981001;27;97944;-68
2023/10/17 04:28:00;;;;;;;;;;;;;;;10.36;48.86;101222.88;5012888;27;98599;-68
2023/10/17 04:30:30;;;;;;;;;;;;;;;10.35;48.99;101221.25;4977476;27;99283;-68
2023/10/17 04:33:08;;;;;;;;;;;;;;;10.34;49.26;101220.44;4959529;27;98487;-64
2023/10/17 04:35:36;;;;;;;;;;;;;;;10.33;49.14;101224.16;4980442;27;98306;-67
2023/10/17 04:38:19;;;;;;;;;;;;;;;10.34;49.25;101233.09;4995871;27;98243;-66
2023/10/17 04:40:50;;;;;;;;;;;;;;;10.33;48.80;101232.25;4979289;27;98115;-64
2023/10/17 04:46:08;;;;;;;;;;;;;;;10.31;49.11;101243.28;4990105;27;98161;-68
2023/10/17 04:48:46;;;;;;;;;;;;;;;10.31;49.46;101239.78;4958126;27;98270;-68
2023/10/17 04:53:51;;;;;;;;;;;;;;;10.30;49.20;101243.56;4980602;27;98354;-63
2023/10/17 04:56:24;;;;;;;;;;;;;;;10.30;49.53;101243.56;4978286;27;98121;-68
2023/10/17 04:58:56;;;;;;;;;;;;;;;10.30;48.98;101240.84;4961086;27;100266;-68
2023/10/17 05:04:33;;;;;;;;;;;;;;;10.28;49.49;101238.38;4999439;27;98060;-63
2023/10/17 06:18:17;;;;;;;;;;;;;;;10.56;49.36;101282.47;5016683;27;97846;-63
2023/10/17 06:26:46;;;;;;;;;;;;;;;10.70;49.22;101291.84;4997868;27;98169;-68
2023/10/17 06:32:06;;;;;;;;;;;;;;;10.79;48.53;101295.75;5000199;27;98880;-68
2023/10/17 06:34:33;;;;;;;;;;;;;;;10.84;48.90;101302.28;4972668;27;98021;-68
2023/10/17 06:37:07;;;;;;;;;;;;;;;10.86;48.93;101303.66;5008998;27;98151;-68
2023/10/17 06:39:36;;;;;;;;;;;;;;;10.90;49.07;101306.69;4999450;27;99131;-63
2023/10/17 06:42:18;;;;;;;;;;;;;;;10.96;48.50;101301.09;4987724;27;98458;-63
2023/10/17 06:44:54;;;;;;;;;;;;;;;11.03;48.67;101309.00;4986067;27;98697;-64
2023/10/17 06:47:30;;;;;;;;;;;;;;;11.09;48.79;101313.41;5003757;27;98854;-63
2023/10/17 06:55:28;;;;;;;;;;;;;;;11.25;48.70;101312.53;5012575;27;97949;-68
2023/10/17 06:57:57;;;;;;;;;;;;;;;11.29;48.39;101319.06;4996895;27;98954;-68
2023/10/17 07:03:15;;;;;;;;;;;;;;;11.39;48.71;101328.34;4986746;27;98350;-68
2023/10/17 07:05:51;;;;;;;;;;;;;;;11.48;48.52;101322.25;5005135;27;98018;-64
2023/10/17 07:08:19;;;;;;;;;;;;;;;11.59;48.62;101316.97;5005464;27;98488;-68
2023/10/17 07:11:02;;;;;;;;;;;;;;;11.66;48.46;101317.59;4997316;27;100650;-69
2023/10/17 07:13:49;;;;;;;;;;;;;;;11.75;48.45;101321.44;4984016;27;99334;-68
2023/10/17 07:16:17;;;;;;;;;;;;;;;11.81;48.51;101317.75;5018092;27;99125;-63
2023/10/17 07:18:44;;;;;;;;;;;;;;;11.87;48.43;101324.03;5000216;27;98220;-64
2023/10/17 07:23:42;;;;;;;;;;;;;;;11.99;48.42;101324.72;5002260;27;97841;-68
2023/10/17 07:26:52;;;;;;;;;;;;;;;12.05;48.38;101320.97;5012235;27;98132;-68
2023/10/17 07:29:00;;;;;;;;;;;;;;;12.12;48.40;101318.88;4977254;27;98870;-63
2023/10/17 07:31:29;;;;;;;;;;;;;;;12.20;48.26;101323.00;4999954;27;102357;-64
2023/10/17 07:36:43;;;;;;;;;;;;;;;12.30;48.33;101325.81;4996800;27;98249;-64
2023/10/17 07:39:23;;;;;;;;;;;;;;;12.37;48.35;101326.38;4981188;27;98104;-68
2023/10/17 07:41:54;;;;;;;;;;;;;;;12.47;48.36;101325.66;4998349;27;98218;-64
2023/10/17 07:44:22;;;;;;;;;;;;;;;12.54;48.12;101323.56;4982233;27;99947;-64
2023/10/17 07:46:50;;;;;;;;;;;;;;;12.64;48.24;101325.50;5017646;27;98151;-68
2023/10/17 07:49:25;;;;;;;;;;;;;;;12.70;48.12;101321.78;4983399;27;98272;-68
2023/10/17 07:51:54;;;;;;;;;;;;;;;12.73;48.16;101322.06;4983357;27;98263;-64
2023/10/17 07:54:28;;;;;;;;;;;;;;;12.83;48.15;101328.59;4986800;27;99143;-64
2023/10/17 07:56:55;;;;;;;;;;;;;;;12.89;47.97;101317.56;4998316;27;98032;-68
2023/10/17 07:59:30;;;;;;;;;;;;;;;12.95;48.05;101326.50;5009531;27;98422;-68
2023/10/17 08:02:00;;;;;;;;;;;;;;;13.03;48.05;101323.31;5000183;27;98056;-64
2023/10/17 08:04:30;;;;;;;;;;;;;;;13.11;47.95;101322.00;4999309;27;98230;-68
2023/10/17 08:06:56;;;;;;;;;;;;;;;13.19;48.19;101324.19;4998861;27;98032;-68
2023/10/17 08:11:51;;;;;;;;;;;;;;;13.39;47.90;101318.06;4985647;27;98306;-70
2023/10/17 08:14:22;;;;;;;;;;;;;;;13.48;47.75;101324.63;4969774;27;99506;-64
2023/10/17 08:16:55;;;;;;;;;;;;;;;13.60;47.74;101322.50;4999165;27;98406;-64
2023/10/17 08:19:22;;;;;;;;;;;;;;;13.73;47.61;101324.69;4986839;27;98350;-68
2023/10/17 08:24:40;;;;;;;;;;;;;;;13.98;47.54;101337.47;4988484;27;98630;-64
2023/10/17 08:27:13;;;;;;;;;;;;;;;14.10;47.92;101333.69;4981501;27;98418;-68
2023/10/17 08:29:48;;;;;;;;;;;;;;;14.21;47.65;101330.69;4982528;27;98374;-64
2023/10/17 08:32:37;;;;;;;;;;;;;;;14.29;47.63;101331.25;4984524;27;98134;-68
2023/10/17 08:35:17;;;;;;;;;;;;;;;14.39;47.46;101328.56;5014584;27;98921;-64
2023/10/17 08:37:45;;;;;;;;;;;;;;;14.46;47.63;101329.06;4986157;27;98243;-64
2023/10/17 08:43:14;;;;;;;;;;;;;;;14.70;47.37;101327.47;4996366;27;98036;-64
2023/10/17 08:45:41;;;;;;;;;;;;;;;14.85;47.50;101326.59;4981314;27;99590;-68
2023/10/17 08:48:09;;;;;;;;;;;;;;;14.99;47.40;101326.84;4998890;27;101115;-64
2023/10/17 08:50:39;;;;;;;;;;;;;;;15.34;47.36;101325.91;4992603;27;98647;-69
2023/10/17 08:53:30;;;;;;;;;;;;;;;15.39;47.31;101323.16;4997203;27;98401;-64
2023/10/17 08:55:58;;;;;;;;;;;;;;;15.52;47.29;101324.44;4986064;27;98268;-64
2023/10/17 08:58:36;;;;;;;;;;;;;;;15.64;47.10;101324.94;4999248;27;98120;-69
2023/10/17 09:01:10;;;;;;;;;;;;;;;15.80;47.27;101324.88;4984640;27;98503;-64
2023/10/17 09:03:40;;;;;;;;;;;;;;;15.95;47.02;101319.34;4984555;27;98045;-69
2023/10/17 09:06:28;;;;;;;;;;;;;;;16.13;47.09;101315.94;4983674;27;98293;-69
2023/10/17 09:09:14;;;;;;;;;;;;;;;16.32;47.04;101313.34;4988575;27;98068;-64
2023/10/17 09:12:01;;;;;;;;;;;;;;;16.51;46.74;101304.50;4971237;27;98199;-69
2023/10/17 09:14:29;;;;;;;;;;;;;;;16.75;46.78;101305.34;4980955;27;98534;-66
2023/10/17 09:17:11;;;;;;;;;;;;;;;17.11;46.49;101308.47;4983394;27;98599;-64
2023/10/17 09:19:47;;;;;;;;;;;;;;;17.56;46.15;101298.06;4996444;27;98698;-64
2023/10/17 09:22:17;;;;;;;;;;;;;;;17.98;45.71;101298.31;4979916;27;99474;-70
2023/10/17 09:24:49;;;;;;;;;;;;;;;18.19;45.81;101299.59;4999240;27;98914;-69
2023/10/17 09:27:16;;;;;;;;;;;;;;;18.36;45.97;101290.88;4985331;27;98377;-69
2023/10/17 09:29:49;;;;;;;;;;;;;;;18.45;45.81;101299.19;5015900;27;100449;-64
2023/10/17 09:32:48;;;;;;;;;;;;;;;18.54;45.93;101294.63;4985001;27;98103;-65
2023/10/17 09:35:15;;;;;;;;;;;;;;;18.63;46.13;101290.13;4952169;27;98859;-70
2023/10/17 09:37:51;;;;;;;;;;;;;;;18.69;46.27;101290.81;4995302;27;98265;-65
2023/10/17 09:40:27;;;;;;;;;;;;;;;18.78;46.31;101289.84;4994653;27;100571;-65
2023/10/17 09:42:53;;;;;;;;;;;;;;;19.09;45.77;101294.69;4982777;27;98237;-69
2023/10/17 09:45:20;;;;;;;;;;;;;;;19.40;45.71;101286.66;4999471;27;98654;-69
2023/10/17 09:47:51;;;;;;;;;;;;;;;20.68;44.30;101286.34;4966537;27;98747;-65
2023/10/17 09:50:21;;;;;;;;;;;;;;;21.96;43.24;101284.16;4974599;27;98655;-70
2023/10/17 09:52:51;;;;;;;;;;;;;;;21.07;44.80;101300.03;4996001;27;98570;-65
2023/10/17 09:55:23;;;;;;;;;;;;;;;20.70;45.35;101297.78;4980322;27;100392;-70
2023/10/17 09:57:52;;;;;;;;;;;;;;;20.47;45.84;101303.28;4980060;27;98170;-70
2023/10/17 10:00:30;;;;;;;;;;;;;;;20.33;46.06;101286.94;4984316;27;102076;-65
2023/10/17 10:02:57;;;;;;;;;;;;;;;20.36;46.04;101282.78;4989129;27;97941;-70
2023/10/17 10:05:25;;;;;;;;;;;;;;;20.57;45.70;101278.41;4995976;27;98177;-64
2023/10/17 10:07:52;;;;;;;;;;;;;;;21.28;44.97;101269.28;4981380;27;98033;-65
2023/10/17 10:10:51;;;;;;;;;;;;;;;21.73;44.64;101264.34;4977783;27;98213;-65
2023/10/17 10:13:20;;;;;;;;;;;;;;;22.14;44.55;101262.22;5014739;27;98101;-65
2023/10/17 10:15:53;;;;;;;;;;;;;;;22.40;44.24;101260.22;4997260;27;97965;-65
2023/10/17 10:18:42;;;;;;;;;;;;;;;23.24;43.54;101255.78;4973660;27;98456;-65
2023/10/17 10:21:13;;;;;;;;;;;;;;;23.45;43.87;101255.78;5014564;27;99152;-63
2023/10/17 10:23:40;;;;;;;;;;;;;;;23.63;43.69;101250.94;4986828;27;98363;-63
2023/10/17 10:26:12;;;;;;;;;;;;;;;24.36;43.19;101250.38;5004157;27;98312;-63
2023/10/17 10:28:41;;;;;;;;;;;;;;;24.74;42.98;101250.13;5001526;27;98229;-64
2023/10/17 10:31:23;;;;;;;;;;;;;;;25.68;42.17;101242.72;4982023;27;98231;-65
2023/10/17 10:33:49;;;;;;;;;;;;;;;25.23;42.98;101249.31;5001780;27;98097;-64
2023/10/17 10:36:16;;;;;;;;;;;;;;;24.54;44.08;101241.97;5011156;27;100235;-69
2023/10/17 10:38:44;;;;;;;;;;;;;;;24.08;44.74;101230.94;4997786;27;105919;-65
2023/10/17 10:41:13;;;;;;;;;;;;;;;23.79;45.11;101228.34;5011771;27;98638;-69
2023/10/17 10:43:40;;;;;;;;;;;;;;;23.45;45.51;101224.72;4971019;27;98840;-64
2023/10/17 10:46:08;;;;;;;;;;;;;;;23.23;45.97;101231.38;5003910;27;98233;-64
2023/10/17 10:48:34;;;;;;;;;;;;;;;23.00;45.90;101228.13;4986280;27;102075;-69
2023/10/17 10:51:00;;;;;;;;;;;;;;;22.85;46.21;101232.22;4984591;27;100218;-69
2023/10/17 10:53:31;;;;;;;;;;;;;;;22.77;46.16;101217.38;5015610;27;98040;-69
2023/10/17 10:56:04;;;;;;;;;;;;;;;22.96;45.74;101219.72;5000789;27;98029;-64
2023/10/17 10:58:32;;;;;;;;;;;;;;;23.81;44.81;101215.84;4997114;27;98047;-64
2023/10/17 11:01:07;;;;;;;;;;;;;;;24.85;43.70;101211.88;4999539;27;98018;-65
2023/10/17 11:03:41;;;;;;;;;;;;;;;25.60;43.30;101219.66;4963234;27;98634;-69
2023/10/17 11:06:09;;;;;;;;;;;;;;;25.53;43.87;101215.88;4988348;27;98245;-65
2023/10/17 11:08:45;;;;;;;;;;;;;;;24.74;44.85;101207.97;4981878;27;101332;-64
2023/10/17 11:11:13;;;;;;;;;;;;;;;25.22;44.36;101196.06;5011142;27;98212;-64
2023/10/17 11:13:41;;;;;;;;;;;;;;;24.77;44.95;101204.53;4991458;27;100311;-65
2023/10/17 11:16:08;;;;;;;;;;;;;;;24.31;45.75;101206.56;5012702;27;98296;-64
2023/10/17 11:18:38;;;;;;;;;;;;;;;24.03;46.28;101194.56;4985482;27;101468;-65
2023/10/17 11:21:10;;;;;;;;;;;;;;;23.70;46.22;101190.72;5002283;27;99458;-69
2023/10/17 11:23:50;;;;;;;;;;;;;;;23.41;46.66;101197.06;5012986;27;98352;-69
2023/10/17 11:26:17;;;;;;;;;;;;;;;23.33;46.74;101186.94;4997596;27;98254;-64
2023/10/17 11:28:46;;;;;;;;;;;;;;;23.46;46.34;101198.81;4988412;27;99463;-69
2023/10/17 11:31:21;;;;;;;;;;;;;;;23.05;46.85;101192.19;5003781;27;98018;-69
2023/10/17 11:33:54;;;;;;;;;;;;;;;22.81;47.04;101178.25;5014828;27;99974;-64
2023/10/17 11:36:21;;;;;;;;;;;;;;;22.58;47.28;101183.22;4984533;27;98160;-64
2023/10/17 11:38:58;;;;;;;;;;;;;;;22.35;47.25;101179.94;5012472;27;98683;-65
2023/10/17 11:41:29;;;;;;;;;;;;;;;22.13;47.63;101179.06;4982862;27;99336;-64
2023/10/17 11:43:55;;;;;;;;;;;;;;;21.93;47.54;101176.97;4984782;27;98211;-69
2023/10/17 11:46:29;;;;;;;;;;;;;;;21.71;47.78;101180.75;5012600;27;98679;-69
2023/10/17 11:49:35;;;;;;;;;;;;;;;21.48;47.98;101177.38;4983106;27;99904;-66
2023/10/17 11:52:05;;;;;;;;;;;;;;;21.25;48.02;101172.03;4906748;28;98336;-69
2023/10/17 11:54:32;;;;;;;;;;;;;;;21.07;48.15;101164.94;4908746;28;100022;-69
2023/10/17 11:57:13;;;;;;;;;;;;;;;20.89;48.16;101164.09;4935475;27;98477;-64
2023/10/17 11:59:55;;;;;;;;;;;;;;;20.69;48.22;101164.72;4979875;27;103154;-70
2023/10/17 12:02:22;;;;;;;;;;;;;;;;;;4981779;27;98346;-64
2023/10/17 12:04:49;;;;;;;;;;;;;;;20.35;48.37;101164.22;4986527;27;98125;-69
2023/10/17 12:07:17;;;;;;;;;;;;;;;20.17;48.46;101157.09;5001167;27;100152;-64
2023/10/17 12:09:43;;;;;;;;;;;;;;;20.03;48.52;101159.09;5011758;27;98290;-64
2023/10/17 12:12:11;;;;;;;;;;;;;;;19.88;48.38;101162.25;4997019;27;98352;-65
2023/10/17 12:14:37;;;;;;;;;;;;;;;19.73;48.61;101156.06;4947154;28;97959;-69
2023/10/17 12:17:08;;;;;;;;;;;;;;;19.60;48.60;101152.22;4978512;27;100100;-69
2023/10/17 12:19:34;;;;;;;;;;;;;;;19.47;48.73;101147.63;4964819;28;98214;-69
2023/10/17 12:22:01;;;;;;;;;;;;;;;19.38;48.56;101146.78;4944445;27;100334;-64
2023/10/17 12:24:31;;;;;;;;;;;;;;;19.30;48.59;101142.06;4964679;28;98817;-64
2023/10/17 12:26:58;;;;;;;;;;;;;;;19.19;48.54;101143.41;4982456;27;99532;-69
2023/10/17 12:29:29;;;;;;;;;;;;;;;19.08;48.88;101148.28;4946625;28;99973;-64
2023/10/17 12:32:00;;;;;;;;;;;;;;;18.98;48.71;101134.84;4951359;27;99083;-65
2023/10/17 12:34:27;;;;;;;;;;;;;;;18.94;48.78;101137.38;4963261;28;98637;-65
2023/10/17 12:36:54;;;;;;;;;;;;;;;18.86;48.74;101133.47;4962582;28;98634;-65
2023/10/17 12:39:21;;;;;;;;;;;;;;;18.79;48.69;101135.03;4940146;28;99652;-64
2023/10/17 12:41:48;;;;;;;;;;;;;;;18.69;48.88;101140.66;4963433;28;98478;-70
2023/10/17 12:44:17;;;;;;;;;;;;;;;18.61;48.71;101137.53;4965191;27;100102;-70
2023/10/17 12:46:47;;;;;;;;;;;;;;;18.55;48.85;101143.38;4952245;28;98173;-65
2023/10/17 12:49:14;;;;;;;;;;;;;;;18.45;48.74;101133.50;4949027;27;98242;-70
2023/10/17 12:51:47;;;;;;;;;;;;;;;18.36;48.76;101138.84;4966930;28;98324;-64
2023/10/17 12:54:14;;;;;;;;;;;;;;;18.31;48.87;101135.41;4967903;27;98261;-64
2023/10/17 12:56:40;;;;;;;;;;;;;;;18.23;48.75;101142.38;4964570;28;100290;-65
2023/10/17 12:59:12;;;;;;;;;;;;;;;18.15;48.99;101132.97;4934846;27;99850;-64
2023/10/17 13:01:39;;;;;;;;;;;;;;;18.10;48.95;101132.28;4953235;28;98036;-65
2023/10/17 13:04:07;;;;;;;;;;;;;;;18.05;48.81;101125.00;4958750;28;99025;-70
2023/10/17 13:06:34;;;;;;;;;;;;;;;18.01;48.93;101129.44;4966412;28;99706;-65
2023/10/17 13:09:01;;;;;;;;;;;;;;;18.02;48.83;101124.78;4969895;27;98165;-70
2023/10/17 13:11:29;;;;;;;;;;;;;;;18.03;48.94;101124.47;4959800;27;111915;-64
2023/10/17 13:13:59;;;;;;;;;;;;;;;18.05;48.94;101127.72;4983616;27;98839;-64
2023/10/17 13:16:28;;;;;;;;;;;;;;;18.06;48.92;101125.81;4993318;27;98572;-70
2023/10/17 13:19:06;;;;;;;;;;;;;;;18.03;48.95;101127.19;5001734;27;98293;-64
2023/10/17 13:21:37;;;;;;;;;;;;;;;17.99;48.85;101117.19;5014398;27;98420;-69
2023/10/17 13:24:05;;;;;;;;;;;;;;;17.95;48.92;101114.25;4996348;27;97889;-70
2023/10/17 13:26:32;;;;;;;;;;;;;;;17.89;48.96;101107.31;4998378;27;98038;-70
2023/10/17 13:28:58;;;;;;;;;;;;;;;17.87;49.06;101112.22;5014274;27;98869;-70
2023/10/17 13:31:25;;;;;;;;;;;;;;;17.82;48.89;101112.34;4995173;27;98100;-65
2023/10/17 13:33:55;;;;;;;;;;;;;;;17.77;49.19;101110.50;4977073;27;98560;-70
2023/10/17 13:36:21;;;;;;;;;;;;;;;17.73;48.99;101105.94;4990323;27;98975;-64
2023/10/17 13:38:51;;;;;;;;;;;;;;;17.67;49.19;101103.28;5003214;27;98236;-70
2023/10/17 13:41:20;;;;;;;;;;;;;;;17.64;49.00;101101.16;4997379;27;98680;-65
2023/10/17 13:43:47;;;;;;;;;;;;;;;17.63;48.97;101098.72;4979348;27;98030;-70
2023/10/17 13:46:16;;;;;;;;;;;;;;;17.60;49.06;101099.31;4984259;27;99509;-70
2023/10/17 13:48:48;;;;;;;;;;;;;;;17.54;49.17;101093.16;5011324;27;98113;-64
2023/10/17 13:51:16;;;;;;;;;;;;;;;17.49;49.07;101095.97;4959390;27;98171;-70
2023/10/17 13:53:44;;;;;;;;;;;;;;;17.47;49.08;101090.00;4979154;27;98190;-70
2023/10/17 13:56:20;;;;;;;;;;;;;;;17.41;49.13;101099.38;5005736;27;99945;-65
2023/10/17 13:58:49;;;;;;;;;;;;;;;17.34;49.24;101107.13;4978827;27;98297;-65
2023/10/17 14:01:28;;;;;;;;;;;;;;;17.26;49.06;101096.91;4998923;27;98668;-70
2023/10/17 14:03:57;;;;;;;;;;;;;;;17.18;49.28;101098.38;4986002;27;98080;-71
2023/10/17 14:06:34;;;;;;;;;;;;;;;17.14;49.23;101095.44;4997162;27;104117;-65
2023/10/17 14:09:03;;;;;;;;;;;;;;;17.07;49.24;101097.72;4994952;27;100222;-65
2023/10/17 14:11:31;;;;;;;;;;;;;;;17.00;49.11;101102.72;4965999;27;98688;-65
2023/10/17 14:13:58;;;;;;;;;;;;;;;16.92;49.18;101095.22;5002400;27;98634;-70
2023/10/17 14:16:24;;;;;;;;;;;;;;;16.84;49.41;101096.69;4968749;27;98158;-65
2023/10/17 14:21:41;;;;;;;;;;;;;;;16.70;49.33;101106.66;5009801;27;99704;-71
2023/10/17 14:24:10;;;;;;;;;;;;;;;16.62;49.27;101093.69;4998318;27;98822;-66
2023/10/17 14:26:36;;;;;;;;;;;;;;;16.55;49.41;101096.81;5001650;27;98255;-71
2023/10/17 14:29:03;;;;;;;;;;;;;;;16.51;49.25;101094.97;4981588;27;98334;-71
2023/10/17 14:31:36;;;;;;;;;;;;;;;16.45;49.31;101078.69;4981312;27;98145;-65
2023/10/17 14:34:02;;;;;;;;;;;;;;;16.39;49.41;101088.03;5001748;27;98963;-65
2023/10/17 14:36:29;;;;;;;;;;;;;;;16.34;49.31;101079.09;5014113;27;98075;-71
2023/10/17 14:38:56;;;;;;;;;;;;;;;16.29;49.25;101079.97;4997184;27;99761;-71
2023/10/17 14:41:23;;;;;;;;;;;;;;;16.23;49.24;101074.88;4995590;27;98363;-65
2023/10/17 14:43:50;;;;;;;;;;;;;;;16.18;49.15;101082.00;4995592;27;97928;-71
2023/10/17 14:46:16;;;;;;;;;;;;;;;16.15;49.23;101081.75;4988144;27;97956;-70
2023/10/17 14:48:44;;;;;;;;;;;;;;;16.09;49.30;101074.78;5001672;27;99189;-69
2023/10/17 14:51:12;;;;;;;;;;;;;;;16.04;49.43;101066.69;5003401;27;99455;-70
2023/10/17 14:53:46;;;;;;;;;;;;;;;16.00;49.33;101071.09;4982578;27;99579;-65
2023/10/17 14:56:13;;;;;;;;;;;;;;;15.97;49.27;101063.50;4981316;27;98483;-64
2023/10/17 14:58:49;;;;;;;;;;;;;;;15.90;49.30;101053.75;4980655;27;100074;-65
2023/10/17 15:01:16;;;;;;;;;;;;;;;15.87;49.32;101067.13;4986844;27;99683;-65